createdAt,value
2017-10-07T00:02:20.280Z,88.12
2017-10-07T00:04:49.358Z,87.80
2017-10-07T00:07:17.681Z,87.57
2017-10-07T00:09:45.997Z,87.89
2017-10-07T00:12:14.320Z,87.87
2017-10-07T00:14:43.381Z,87.68
2017-10-07T00:17:12.265Z,87.50
2017-10-07T00:19:40.558Z,87.33
2017-10-07T00:22:08.868Z,87.03
2017-10-07T00:24:37.179Z,86.96
2017-10-07T00:27:05.496Z,87.17
2017-10-07T00:29:33.797Z,87.17
2017-10-07T00:32:02.156Z,87.30
2017-10-07T00:34:31.220Z,87.15
2017-10-07T00:36:59.549Z,86.96
2017-10-07T00:39:27.856Z,86.86
2017-10-07T00:41:56.158Z,86.79
2017-10-07T00:44:24.476Z,86.83
2017-10-07T00:46:53.538Z,86.92
2017-10-07T00:49:21.848Z,86.91
2017-10-07T00:51:50.910Z,86.87
2017-10-07T00:54:19.226Z,86.61
2017-10-07T00:56:47.530Z,86.92
2017-10-07T00:59:15.841Z,87.00
2017-10-07T01:01:44.171Z,86.92
2017-10-07T01:04:12.476Z,86.96
2017-10-07T01:06:40.777Z,86.55
2017-10-07T01:09:09.085Z,86.31
2017-10-07T01:11:37.389Z,86.21
2017-10-07T01:14:05.726Z,86.21
2017-10-07T01:16:34.793Z,86.04
2017-10-07T01:19:03.087Z,85.97
2017-10-07T01:21:31.401Z,85.99
2017-10-07T01:23:59.702Z,85.73
2017-10-07T01:26:28.004Z,85.44
2017-10-07T01:28:56.300Z,85.57
2017-10-07T01:31:25.377Z,85.57
2017-10-07T01:33:53.737Z,85.81
2017-10-07T01:36:22.044Z,85.39
2017-10-07T01:38:50.341Z,85.27
2017-10-07T01:41:19.450Z,85.30
2017-10-07T01:43:48.544Z,85.22
2017-10-07T01:46:16.836Z,85.34
2017-10-07T01:48:45.144Z,85.27
2017-10-07T01:51:13.457Z,85.40
2017-10-07T01:53:42.537Z,85.42
2017-10-07T01:56:10.837Z,85.41
2017-10-07T01:58:39.904Z,85.17
2017-10-07T02:01:08.202Z,85.25
2017-10-07T02:03:36.540Z,85.38
2017-10-07T02:06:04.853Z,85.22
2017-10-07T02:08:33.969Z,85.01
2017-10-07T02:11:02.295Z,84.72
2017-10-07T02:13:30.594Z,84.88
2017-10-07T02:15:58.915Z,84.75
2017-10-07T02:18:27.212Z,84.94
2017-10-07T02:20:55.525Z,85.19
2017-10-07T02:23:24.589Z,85.22
2017-10-07T02:25:52.891Z,85.20
2017-10-07T02:28:21.182Z,85.32
2017-10-07T02:30:50.276Z,85.54
2017-10-07T02:33:19.342Z,85.46
2017-10-07T02:35:48.418Z,85.67
2017-10-07T02:38:16.730Z,85.35
2017-10-07T02:40:45.041Z,85.41
2017-10-07T02:43:13.371Z,85.70
2017-10-07T02:45:41.698Z,85.72
2017-10-07T02:48:10.050Z,85.72
2017-10-07T02:50:39.139Z,85.83
2017-10-07T02:53:07.463Z,85.65
2017-10-07T02:55:35.766Z,85.38
2017-10-07T02:58:04.115Z,85.16
2017-10-07T03:00:32.426Z,85.01
2017-10-07T03:03:00.745Z,84.62
2017-10-07T03:05:29.833Z,84.61
2017-10-07T03:07:58.893Z,84.43
2017-10-07T03:10:27.218Z,84.56
2017-10-07T03:12:56.294Z,84.51
2017-10-07T03:15:24.604Z,84.34
2017-10-07T03:17:52.911Z,84.61
2017-10-07T03:20:21.270Z,84.54
2017-10-07T03:22:49.570Z,84.67
2017-10-07T03:25:17.877Z,84.71
2017-10-07T03:27:46.207Z,84.68
2017-10-07T03:30:14.515Z,85.03
2017-10-07T03:32:42.853Z,85.61
2017-10-07T03:35:11.157Z,85.52
2017-10-07T03:37:39.469Z,85.52
2017-10-07T03:40:08.537Z,85.67
2017-10-07T03:42:36.892Z,85.69
2017-10-07T03:45:05.266Z,85.53
2017-10-07T03:47:33.572Z,85.68
2017-10-07T03:50:01.881Z,86.01
2017-10-07T03:52:30.945Z,86.13
2017-10-07T03:54:59.270Z,86.31
2017-10-07T03:57:27.577Z,86.10
2017-10-07T03:59:55.897Z,86.06
2017-10-07T04:02:24.203Z,86.19
2017-10-07T04:04:52.514Z,85.66
2017-10-07T04:07:20.809Z,85.73
2017-10-07T04:09:49.173Z,85.35
2017-10-07T04:12:17.474Z,84.93
2017-10-07T04:14:45.789Z,84.99
2017-10-07T04:17:14.101Z,85.01
2017-10-07T04:19:42.404Z,84.97
2017-10-07T04:22:10.733Z,85.16
2017-10-07T04:24:39.034Z,84.93
2017-10-07T04:27:07.353Z,85.09
2017-10-07T04:29:36.430Z,84.85
2017-10-07T04:32:04.742Z,85.39
2017-10-07T04:34:33.806Z,85.48
2017-10-07T04:37:02.129Z,85.38
2017-10-07T04:39:30.437Z,85.19
2017-10-07T04:41:59.537Z,85.40
2017-10-07T04:44:27.845Z,84.98
2017-10-07T04:46:56.154Z,85.12
2017-10-07T04:49:24.490Z,85.18
2017-10-07T04:51:52.868Z,85.25
2017-10-07T04:54:21.192Z,85.79
2017-10-07T04:56:49.493Z,86.64
2017-10-07T04:59:17.805Z,87.35
2017-10-07T05:01:46.123Z,87.91
2017-10-07T05:04:14.434Z,88.32
2017-10-07T05:06:42.752Z,88.48
2017-10-07T05:09:11.817Z,88.46
2017-10-07T05:11:40.142Z,87.93
2017-10-07T05:14:08.475Z,88.10
2017-10-07T05:16:36.800Z,88.36
2017-10-07T05:19:05.104Z,88.52
2017-10-07T05:21:33.414Z,88.75
2017-10-07T05:24:01.722Z,88.81
2017-10-07T05:26:30.095Z,88.73
2017-10-07T05:28:59.169Z,88.51
2017-10-07T05:31:27.473Z,88.80
2017-10-07T05:33:55.787Z,88.91
2017-10-07T05:36:24.129Z,88.78
2017-10-07T05:38:52.454Z,88.84
2017-10-07T05:41:20.841Z,88.69
2017-10-07T05:43:49.165Z,87.86
2017-10-07T05:46:17.460Z,87.46
2017-10-07T05:48:45.792Z,87.12
2017-10-07T05:51:14.101Z,86.94
2017-10-07T05:53:42.438Z,86.89
2017-10-07T05:56:10.791Z,86.52
2017-10-07T05:58:39.141Z,86.51
2017-10-07T06:01:07.450Z,86.32
2017-10-07T06:03:35.749Z,85.72
2017-10-07T06:06:04.057Z,85.66
2017-10-07T06:08:33.121Z,85.50
2017-10-07T06:11:01.433Z,85.20
2017-10-07T06:13:29.741Z,85.04
2017-10-07T06:15:58.082Z,85.61
2017-10-07T06:18:27.141Z,84.90
2017-10-07T06:20:55.465Z,85.32
2017-10-07T06:23:23.771Z,84.94
2017-10-07T06:25:52.101Z,84.73
2017-10-07T06:28:21.184Z,84.35
2017-10-07T06:30:49.477Z,84.08
2017-10-07T06:33:18.554Z,83.81
2017-10-07T06:35:46.856Z,83.50
2017-10-07T06:38:15.197Z,83.36
2017-10-07T06:40:43.508Z,82.19
2017-10-07T06:43:11.810Z,81.00
2017-10-07T06:45:40.120Z,80.91
2017-10-07T06:48:08.430Z,80.50
2017-10-07T06:50:37.511Z,81.10
2017-10-07T06:53:05.814Z,80.81
2017-10-07T06:55:34.118Z,81.37
2017-10-07T06:58:02.444Z,81.22
2017-10-07T07:00:31.536Z,82.63
2017-10-07T07:02:59.851Z,84.25
2017-10-07T07:05:28.191Z,85.36
2017-10-07T07:07:56.487Z,86.64
2017-10-07T07:10:25.585Z,87.59
2017-10-07T07:12:54.657Z,87.86
2017-10-07T07:15:22.958Z,88.22
2017-10-07T07:17:52.049Z,88.98
2017-10-07T07:20:21.139Z,89.75
2017-10-07T07:22:50.226Z,90.44
2017-10-07T07:25:18.525Z,90.43
2017-10-07T07:27:47.637Z,90.07
2017-10-07T07:30:15.931Z,90.73
2017-10-07T07:32:44.230Z,90.53
2017-10-07T07:35:12.542Z,90.07
2017-10-07T07:37:41.615Z,90.20
2017-10-07T07:40:09.926Z,89.72
2017-10-07T07:42:38.227Z,87.96
2017-10-07T07:45:06.537Z,88.43
2017-10-07T07:47:34.841Z,87.62
2017-10-07T07:50:03.918Z,85.56
2017-10-07T07:52:32.221Z,85.47
2017-10-07T07:55:01.294Z,84.64
2017-10-07T07:57:29.598Z,84.57
2017-10-07T07:59:57.922Z,83.30
2017-10-07T08:02:26.216Z,83.58
2017-10-07T08:04:54.669Z,83.96
2017-10-07T08:07:22.974Z,82.75
2017-10-07T08:09:51.274Z,82.39
2017-10-07T08:12:20.358Z,81.71
2017-10-07T08:14:48.673Z,80.63
2017-10-07T08:17:16.982Z,80.41
2017-10-07T08:19:45.281Z,80.20
2017-10-07T08:22:13.595Z,79.14
2017-10-07T08:24:41.901Z,78.11
2017-10-07T08:27:10.217Z,77.12
2017-10-07T08:29:38.518Z,76.85
2017-10-07T08:32:07.618Z,75.91
2017-10-07T08:34:36.689Z,75.32
2017-10-07T08:37:04.989Z,73.86
2017-10-07T08:39:34.062Z,74.16
2017-10-07T08:42:02.365Z,73.25
2017-10-07T08:44:30.670Z,73.83
2017-10-07T08:46:58.973Z,71.57
2017-10-07T08:49:27.299Z,68.90
2017-10-07T08:51:55.601Z,69.12
2017-10-07T08:54:23.939Z,71.12
2017-10-07T08:56:53.014Z,70.57
2017-10-07T08:59:21.325Z,71.07
2017-10-07T09:01:49.643Z,71.91
2017-10-07T09:04:17.945Z,73.57
2017-10-07T09:06:47.041Z,71.25
2017-10-07T09:09:15.358Z,71.19
2017-10-07T09:11:43.677Z,73.77
2017-10-07T09:14:11.994Z,71.84
2017-10-07T09:16:41.098Z,72.32
2017-10-07T09:19:09.409Z,71.86
2017-10-07T09:21:37.728Z,71.21
2017-10-07T09:24:06.113Z,70.02
2017-10-07T09:26:35.267Z,70.11
2017-10-07T09:29:03.586Z,69.39
2017-10-07T09:31:31.954Z,69.86
2017-10-07T09:34:00.273Z,71.13
2017-10-07T09:36:28.596Z,70.63
2017-10-07T09:38:56.965Z,69.95
2017-10-07T09:41:26.033Z,69.48
2017-10-07T09:43:54.337Z,68.85
2017-10-07T09:46:22.655Z,69.00
2017-10-07T09:48:51.734Z,67.36
2017-10-07T09:51:20.050Z,66.57
2017-10-07T09:53:48.349Z,66.52
2017-10-07T09:56:16.664Z,65.24
2017-10-07T09:58:45.793Z,64.37
2017-10-07T10:01:14.138Z,64.83
2017-10-07T10:03:42.447Z,65.59
2017-10-07T10:06:10.753Z,65.28
2017-10-07T10:08:39.069Z,63.54
2017-10-07T10:11:07.373Z,63.95
2017-10-07T10:13:35.698Z,63.89
2017-10-07T10:16:04.010Z,64.10
2017-10-07T10:18:33.128Z,65.70
2017-10-07T10:21:01.447Z,65.88
2017-10-07T10:23:29.797Z,66.36
2017-10-07T10:25:58.108Z,65.49
2017-10-07T10:28:26.408Z,65.62
2017-10-07T10:30:54.730Z,65.98
2017-10-07T10:33:23.040Z,67.21
2017-10-07T10:35:51.358Z,66.72
2017-10-07T10:38:20.421Z,66.16
2017-10-07T10:40:48.746Z,65.57
2017-10-07T10:43:17.062Z,64.87
2017-10-07T10:45:45.416Z,64.72
2017-10-07T10:48:13.723Z,65.64
2017-10-07T10:50:42.081Z,66.45
2017-10-07T10:53:10.402Z,67.29
2017-10-07T10:55:38.714Z,67.48
2017-10-07T10:58:07.028Z,67.75
2017-10-07T11:00:35.354Z,68.99
2017-10-07T11:03:03.694Z,69.19
2017-10-07T11:05:32.008Z,69.37
2017-10-07T11:08:01.122Z,69.30
2017-10-07T11:10:29.443Z,69.89
2017-10-07T11:12:57.745Z,69.45
2017-10-07T11:15:26.075Z,70.15
2017-10-07T11:17:54.387Z,72.06
2017-10-07T11:20:22.715Z,72.72
2017-10-07T11:22:51.015Z,71.12
2017-10-07T11:25:19.336Z,70.38
2017-10-07T11:27:48.401Z,70.93
2017-10-07T11:30:16.723Z,70.72
2017-10-07T11:32:45.031Z,70.42
2017-10-07T11:35:14.126Z,70.12
2017-10-07T11:37:42.447Z,70.55
2017-10-07T11:40:10.790Z,70.81
2017-10-07T11:42:39.094Z,70.22
2017-10-07T11:45:07.403Z,71.20
2017-10-07T11:47:36.494Z,71.14
2017-10-07T11:50:05.558Z,71.49
2017-10-07T11:52:33.887Z,70.84
2017-10-07T11:55:02.222Z,72.26
2017-10-07T11:57:30.588Z,72.43
2017-10-07T11:59:59.658Z,71.30
2017-10-07T12:02:27.989Z,72.60
2017-10-07T12:04:57.057Z,71.84
2017-10-07T12:07:25.362Z,72.15
2017-10-07T12:09:54.441Z,72.07
2017-10-07T12:12:22.755Z,72.89
2017-10-07T12:14:51.085Z,71.13
2017-10-07T12:17:19.397Z,71.17
2017-10-07T12:19:48.485Z,71.19
2017-10-07T12:22:17.558Z,72.32
2017-10-07T12:24:45.892Z,72.01
2017-10-07T12:27:14.202Z,74.21
2017-10-07T12:29:42.509Z,74.35
2017-10-07T12:32:11.590Z,74.46
2017-10-07T12:34:39.904Z,73.51
2017-10-07T12:37:08.230Z,73.62
2017-10-07T12:39:36.546Z,73.82
2017-10-07T12:42:05.621Z,74.64
2017-10-07T12:44:33.925Z,74.67
2017-10-07T12:47:03.002Z,73.90
2017-10-07T12:49:32.066Z,75.65
2017-10-07T12:52:00.397Z,75.74
2017-10-07T12:54:28.701Z,75.45
2017-10-07T12:56:57.002Z,74.26
2017-10-07T12:59:25.318Z,75.99
2017-10-07T13:01:54.435Z,75.74
2017-10-07T13:04:22.750Z,76.21
2017-10-07T13:06:51.054Z,75.38
2017-10-07T13:09:20.137Z,75.58
2017-10-07T13:11:48.449Z,75.43
2017-10-07T13:14:16.785Z,75.10
2017-10-07T13:16:45.082Z,76.14
2017-10-07T13:19:14.145Z,74.11
2017-10-07T13:21:42.457Z,75.13
2017-10-07T13:24:11.521Z,74.69
2017-10-07T13:26:39.834Z,74.93
2017-10-07T13:29:08.907Z,74.05
2017-10-07T13:31:37.232Z,73.91
2017-10-07T13:34:05.553Z,74.97
2017-10-07T13:36:33.889Z,74.24
2017-10-07T13:39:02.186Z,74.83
2017-10-07T13:41:30.502Z,74.84
2017-10-07T13:43:58.825Z,74.97
2017-10-07T13:46:27.135Z,75.31
2017-10-07T13:48:55.453Z,75.36
2017-10-07T13:51:24.517Z,76.15
2017-10-07T13:53:52.837Z,75.96
2017-10-07T13:56:21.163Z,75.64
2017-10-07T13:58:49.510Z,75.36
2017-10-07T14:01:17.808Z,76.59
2017-10-07T14:03:46.118Z,76.39
2017-10-07T14:06:14.429Z,76.34
2017-10-07T14:08:42.729Z,76.50
2017-10-07T14:11:11.046Z,77.27
2017-10-07T14:13:39.341Z,77.69
2017-10-07T14:16:08.413Z,78.33
2017-10-07T14:18:36.721Z,78.11
2017-10-07T14:21:05.254Z,78.70
2017-10-07T14:23:33.549Z,79.29
2017-10-07T14:26:01.861Z,79.36
2017-10-07T14:28:30.173Z,80.10
2017-10-07T14:30:58.478Z,80.34
2017-10-07T14:33:26.786Z,80.80
2017-10-07T14:35:55.845Z,81.59
2017-10-07T14:38:24.158Z,81.22
2017-10-07T14:40:53.220Z,81.67
2017-10-07T14:43:21.541Z,82.22
2017-10-07T14:45:49.850Z,82.75
2017-10-07T14:48:18.182Z,82.34
2017-10-07T14:50:47.257Z,83.18
2017-10-07T14:53:15.614Z,83.83
2017-10-07T14:55:43.933Z,82.80
2017-10-07T14:58:13.054Z,83.98
2017-10-07T15:00:41.374Z,84.45
2017-10-07T15:03:09.681Z,84.93
2017-10-07T15:05:38.762Z,84.98
2017-10-07T15:08:07.070Z,85.33
2017-10-07T15:10:35.406Z,85.33
2017-10-07T15:13:03.720Z,85.85
2017-10-07T15:15:32.021Z,86.76
2017-10-07T15:18:00.329Z,86.50
2017-10-07T15:20:28.637Z,86.86
2017-10-07T15:22:56.953Z,86.92
2017-10-07T15:25:25.253Z,86.98
2017-10-07T15:27:53.563Z,87.48
2017-10-07T15:30:22.629Z,87.23
2017-10-07T15:32:50.973Z,87.45
2017-10-07T15:35:19.282Z,86.96
2017-10-07T15:37:48.364Z,87.29
2017-10-07T15:40:16.669Z,87.60
2017-10-07T15:42:44.964Z,86.86
2017-10-07T15:45:14.046Z,87.90
2017-10-07T15:47:42.354Z,87.75
2017-10-07T15:50:10.673Z,87.29
2017-10-07T15:52:38.990Z,87.39
2017-10-07T15:55:08.102Z,87.12
2017-10-07T15:57:36.398Z,87.32
2017-10-07T16:00:04.703Z,87.15
2017-10-07T16:02:33.013Z,86.97
2017-10-07T16:05:02.830Z,86.49
2017-10-07T16:07:31.910Z,86.21
2017-10-07T16:10:00.214Z,85.76
2017-10-07T16:12:28.530Z,85.89
2017-10-07T16:14:56.833Z,85.59
2017-10-07T16:17:25.172Z,84.97
2017-10-07T16:19:53.469Z,84.81
2017-10-07T16:22:21.781Z,84.76
2017-10-07T16:24:50.858Z,84.55
2017-10-07T16:27:19.161Z,84.07
2017-10-07T16:29:48.246Z,83.83
2017-10-07T16:32:16.551Z,83.10
2017-10-07T16:34:44.865Z,83.06
2017-10-07T16:37:13.177Z,83.22
2017-10-07T16:39:41.505Z,82.74
2017-10-07T16:42:09.831Z,83.53
2017-10-07T16:44:38.134Z,83.17
2017-10-07T16:47:06.454Z,83.17
2017-10-07T16:49:34.762Z,83.87
2017-10-07T16:52:03.075Z,84.30
2017-10-07T16:54:31.381Z,84.61
2017-10-07T16:56:59.721Z,84.98
2017-10-07T16:59:28.042Z,85.49
2017-10-07T17:01:56.382Z,85.72
2017-10-07T17:04:24.705Z,86.08
2017-10-07T17:06:53.049Z,86.02
2017-10-07T17:09:21.362Z,85.95
2017-10-07T17:11:49.669Z,85.83
2017-10-07T17:14:18.743Z,86.18
2017-10-07T17:16:47.045Z,85.47
2017-10-07T17:19:16.121Z,85.39
2017-10-07T17:21:44.434Z,85.08
2017-10-07T17:24:12.784Z,84.37
2017-10-07T17:26:41.120Z,84.13
2017-10-07T17:29:09.417Z,84.71
2017-10-07T17:31:37.730Z,84.71
2017-10-07T17:34:06.801Z,84.72
2017-10-07T17:36:35.123Z,84.59
2017-10-07T17:39:03.441Z,84.59
2017-10-07T17:41:31.753Z,84.10
2017-10-07T17:44:00.826Z,83.54
2017-10-07T17:46:29.162Z,83.30
2017-10-07T17:48:57.466Z,82.85
2017-10-07T17:51:25.782Z,83.12
2017-10-07T17:53:54.868Z,82.88
2017-10-07T17:56:23.946Z,82.77
2017-10-07T17:58:52.254Z,83.05
2017-10-07T18:01:21.321Z,82.74
2017-10-07T18:03:49.643Z,82.66
2017-10-07T18:06:17.972Z,82.65
2017-10-07T18:08:46.316Z,82.68
2017-10-07T18:11:14.625Z,82.93
2017-10-07T18:13:42.925Z,82.09
2017-10-07T18:16:11.313Z,82.36
2017-10-07T18:18:40.382Z,82.10
2017-10-07T18:21:08.698Z,82.31
2017-10-07T18:23:37.014Z,82.74
2017-10-07T18:26:05.325Z,82.87
2017-10-07T18:28:33.621Z,82.42
2017-10-07T18:31:02.725Z,81.95
2017-10-07T18:33:31.030Z,81.93
2017-10-07T18:35:59.330Z,81.85
2017-10-07T18:38:27.638Z,82.09
2017-10-07T18:40:56.721Z,82.10
2017-10-07T18:43:25.039Z,82.33
2017-10-07T18:45:53.344Z,82.74
2017-10-07T18:48:21.657Z,82.73
2017-10-07T18:50:49.961Z,82.72
2017-10-07T18:53:19.841Z,82.72
2017-10-07T18:55:48.184Z,82.60
2017-10-07T18:58:16.513Z,82.38
2017-10-07T19:00:45.582Z,82.80
2017-10-07T19:03:13.894Z,82.00
2017-10-07T19:05:42.977Z,82.17
2017-10-07T19:08:12.045Z,81.84
2017-10-07T19:10:40.352Z,81.52
2017-10-07T19:13:09.418Z,81.66
2017-10-07T19:15:37.736Z,81.57
2017-10-07T19:18:06.045Z,81.69
2017-10-07T19:20:34.378Z,81.76
2017-10-07T19:23:03.441Z,81.91
2017-10-07T19:25:31.751Z,81.84
2017-10-07T19:28:00.829Z,82.26
2017-10-07T19:30:29.133Z,81.92
2017-10-07T19:32:58.214Z,82.26
2017-10-07T19:35:27.277Z,82.38
2017-10-07T19:37:55.581Z,82.41
2017-10-07T19:40:23.890Z,82.49
2017-10-07T19:42:52.254Z,82.81
2017-10-07T19:45:21.325Z,82.50
2017-10-07T19:47:49.748Z,82.80
2017-10-07T19:50:18.055Z,83.02
2017-10-07T19:52:46.367Z,83.55
2017-10-07T19:55:15.448Z,83.46
2017-10-07T19:57:43.745Z,84.46
2017-10-07T20:00:12.833Z,84.87
2017-10-07T20:02:41.137Z,85.10
2017-10-07T20:05:09.454Z,85.10
2017-10-07T20:07:37.772Z,85.12
2017-10-07T20:10:06.853Z,85.26
2017-10-07T20:12:35.163Z,85.62
2017-10-07T20:15:03.493Z,85.73
2017-10-07T20:17:31.795Z,85.55
2017-10-07T20:20:00.876Z,85.76
2017-10-07T20:22:29.200Z,85.77
2017-10-07T20:24:57.502Z,85.87
2017-10-07T20:27:25.810Z,85.81
2017-10-07T20:29:54.122Z,85.81
2017-10-07T20:32:22.434Z,86.33
2017-10-07T20:34:50.737Z,86.61
2017-10-07T20:37:19.090Z,86.51
2017-10-07T20:39:47.401Z,86.50
2017-10-07T20:42:15.715Z,86.47
2017-10-07T20:44:44.024Z,86.73
2017-10-07T20:47:12.898Z,86.87
2017-10-07T20:49:41.214Z,87.24
2017-10-07T20:52:09.514Z,87.31
2017-10-07T20:54:38.606Z,87.31
2017-10-07T20:57:07.664Z,87.82
2017-10-07T20:59:35.993Z,87.54
2017-10-07T21:02:05.053Z,87.84
2017-10-07T21:04:33.362Z,88.28
2017-10-07T21:07:01.672Z,88.27
2017-10-07T21:09:29.971Z,88.16
2017-10-07T21:11:58.293Z,88.44
2017-10-07T21:14:27.349Z,88.95
2017-10-07T21:16:55.661Z,88.74
2017-10-07T21:19:24.773Z,88.48
2017-10-07T21:21:53.111Z,88.67
2017-10-07T21:24:21.441Z,88.73
2017-10-07T21:26:49.825Z,88.57
2017-10-07T21:29:18.134Z,88.99
2017-10-07T21:31:46.442Z,88.89
2017-10-07T21:34:15.517Z,88.86
2017-10-07T21:36:43.815Z,88.73
2017-10-07T21:39:12.884Z,89.06
2017-10-07T21:41:41.192Z,88.85
2017-10-07T21:44:10.290Z,89.23
2017-10-07T21:46:39.358Z,89.65
2017-10-07T21:49:07.658Z,89.08
2017-10-07T21:51:36.750Z,89.09
2017-10-07T21:54:05.813Z,88.99
2017-10-07T21:56:34.243Z,89.02
2017-10-07T21:59:02.546Z,89.03
2017-10-07T22:01:30.872Z,89.02
2017-10-07T22:03:59.942Z,88.55
2017-10-07T22:06:28.281Z,88.32
2017-10-07T22:08:56.580Z,88.70
2017-10-07T22:11:24.898Z,88.33
2017-10-07T22:13:53.974Z,88.31
2017-10-07T22:16:22.269Z,87.63
2017-10-07T22:18:51.365Z,87.81
2017-10-07T22:21:20.446Z,87.81
2017-10-07T22:23:48.774Z,87.33
2017-10-07T22:26:17.073Z,87.68
2017-10-07T22:28:45.391Z,87.58
2017-10-07T22:31:14.462Z,86.90
2017-10-07T22:33:42.798Z,87.04
2017-10-07T22:36:11.119Z,87.12
2017-10-07T22:38:39.423Z,87.34
2017-10-07T22:41:08.490Z,87.64
2017-10-07T22:43:36.804Z,87.18
2017-10-07T22:46:05.123Z,87.16
2017-10-07T22:48:33.433Z,86.73
2017-10-07T22:51:01.790Z,86.77
2017-10-07T22:53:30.093Z,87.06
2017-10-07T22:55:58.426Z,87.12
2017-10-07T22:58:26.725Z,87.01
2017-10-07T23:00:55.073Z,87.15
2017-10-07T23:03:23.377Z,86.87
2017-10-07T23:05:51.669Z,87.04
2017-10-07T23:08:19.993Z,87.47
2017-10-07T23:10:48.290Z,86.92
2017-10-07T23:13:16.616Z,86.87
2017-10-07T23:15:44.922Z,87.31
2017-10-07T23:18:13.270Z,87.69
2017-10-07T23:20:41.579Z,87.64
2017-10-07T23:23:09.889Z,87.02
2017-10-07T23:25:38.204Z,87.60
2017-10-07T23:28:07.266Z,87.65
2017-10-07T23:30:35.576Z,87.97
2017-10-07T23:33:04.657Z,88.02
2017-10-07T23:35:32.993Z,88.72
2017-10-07T23:38:01.314Z,88.45
2017-10-07T23:40:29.649Z,87.77
2017-10-07T23:42:57.942Z,88.20
2017-10-07T23:45:26.245Z,88.11
2017-10-07T23:47:54.568Z,88.54
2017-10-07T23:50:22.861Z,88.22
2017-10-07T23:52:51.170Z,88.38
2017-10-07T23:55:19.473Z,88.00
2017-10-07T23:57:48.550Z,87.90
